Time;durP1;ratioP1;P1;durP2;ratioP2;P2;SDS_P1;SDS_P2;PMS_P1;PMS_P2;Temp;Humidity;BMP_temperature;BMP_pressure;BME280_temperature;BME280_humidity;BME280_pressure;Samples;Min_cycle;Max_cycle;Signal;HPM_P1;HPM_P2
2022/06/04 00:00:49;;;;;;;15.43;4.82;;;14.50;96.10;;;;;;5050794;28;20136;-76
2022/06/04 00:03:15;;;;;;;14.98;4.57;;;14.60;96.10;;;;;;5033123;28;20033;-77
2022/06/04 00:05:45;;;;;;;19.15;4.68;;;14.60;96.10;;;;;;5043392;28;20099;-75
2022/06/04 00:08:11;;;;;;;;;;;14.60;96.20;;;;;;5048858;28;20779;-75
2022/06/04 00:16:10;;;;;;;19.08;5.53;;;14.60;96.30;;;;;;5052969;28;20039;-76
2022/06/04 00:18:36;;;;;;;22.30;5.72;;;14.60;96.30;;;;;;5041913;28;20040;-74
2022/06/04 00:21:03;;;;;;;17.77;5.43;;;14.60;96.40;;;;;;5048514;28;20082;-77
2022/06/04 00:23:29;;;;;;;22.52;5.25;;;14.60;96.40;;;;;;5049020;28;20021;-76
2022/06/04 00:25:57;;;;;;;17.00;4.97;;;14.50;96.40;;;;;;5057489;28;20029;-76
2022/06/04 00:28:24;;;;;;;20.10;5.35;;;14.60;96.50;;;;;;5030266;28;20038;-75
2022/06/04 00:30:51;;;;;;;23.70;5.55;;;14.50;96.40;;;;;;5033741;28;20426;-76
2022/06/04 00:33:18;;;;;;;18.40;5.40;;;14.50;96.50;;;;;;5058300;28;20216;-75
2022/06/04 00:35:46;;;;;;;24.30;5.75;;;14.50;96.50;;;;;;5040996;28;20033;-74
2022/06/04 00:38:15;;;;;;;22.30;5.78;;;14.50;96.50;;;;;;5044529;28;20040;-77
2022/06/04 00:40:46;;;;;;;21.92;5.75;;;14.60;96.60;;;;;;5053838;28;20491;-77
2022/06/04 00:43:13;;;;;;;18.08;4.90;;;14.50;96.70;;;;;;5039058;28;20059;-76
2022/06/04 00:46:16;;;;;;;18.52;5.28;;;14.50;96.70;;;;;;5056073;28;20530;-77
2022/06/04 00:48:42;;;;;;;18.00;5.57;;;14.50;96.70;;;;;;5056642;28;20033;-76
2022/06/04 00:51:08;;;;;;;17.60;4.90;;;14.50;96.80;;;;;;5039883;28;20059;-76
2022/06/04 00:53:35;;;;;;;22.05;5.30;;;14.60;96.80;;;;;;5054642;28;20206;-77
2022/06/04 00:56:27;;;;;;;18.48;5.47;;;14.60;96.80;;;;;;5065911;28;20539;-75
2022/06/04 00:59:19;;;;;;;23.92;5.20;;;14.50;96.90;;;;;;5051759;28;20049;-76
2022/06/04 01:01:57;;;;;;;20.70;5.63;;;14.50;96.90;;;;;;5036527;28;20041;-76
2022/06/04 01:04:57;;;;;;;18.75;4.80;;;14.50;97.10;;;;;;5050330;28;20036;-77
2022/06/04 01:07:41;;;;;;;;;;;14.50;96.90;;;;;;5050951;28;20036;-76
2022/06/04 01:10:38;;;;;;;20.20;5.35;;;14.50;97.00;;;;;;5055352;28;19924;-76
2022/06/04 01:13:20;;;;;;;18.48;4.43;;;14.50;97.10;;;;;;5043495;28;20037;-76
2022/06/04 01:16:03;;;;;;;19.80;5.40;;;14.60;97.10;;;;;;5051466;28;20606;-76
2022/06/04 01:19:03;;;;;;;20.02;4.70;;;14.60;97.10;;;;;;5056643;28;20610;-77
2022/06/04 01:21:47;;;;;;;16.63;5.40;;;14.60;97.00;;;;;;5059933;28;20035;-77
2022/06/04 01:24:38;;;;;;;18.52;4.93;;;14.60;97.20;;;;;;5045240;28;20033;-77
2022/06/04 01:27:29;;;;;;;14.73;5.32;;;14.60;97.20;;;;;;5028002;28;20441;-76
2022/06/04 01:30:01;;;;;;;15.77;4.85;;;14.50;97.30;;;;;;5048127;28;20060;-76
2022/06/04 01:32:38;;;;;;;19.85;5.35;;;14.60;97.30;;;;;;5060870;28;20028;-78
2022/06/04 01:35:23;;;;;;;17.95;4.88;;;14.60;97.30;;;;;;5052133;28;20036;-76
2022/06/04 01:37:51;;;;;;;18.80;5.20;;;14.60;97.40;;;;;;5035619;28;20549;-75
2022/06/04 01:43:11;;;;;;;20.88;5.18;;;14.50;97.40;;;;;;5046285;28;20055;-76
2022/06/04 01:45:40;;;;;;;16.42;5.10;;;14.50;97.40;;;;;;5051681;28;20032;-77
2022/06/04 01:48:07;;;;;;;20.20;5.35;;;14.50;97.40;;;;;;5044101;28;20070;-76
2022/06/04 01:50:39;;;;;;;18.98;4.90;;;14.60;97.40;;;;;;5050787;28;20032;-76
2022/06/04 01:53:08;;;;;;;24.05;5.50;;;14.60;97.40;;;;;;5029285;28;20033;-77
2022/06/04 01:55:43;;;;;;;17.88;5.10;;;14.60;97.50;;;;;;5024548;28;20053;-76
2022/06/04 01:58:20;;;;;;;24.08;5.97;;;14.60;97.60;;;;;;5044947;28;20044;-76
2022/06/04 02:00:57;;;;;;;21.60;5.00;;;14.60;97.60;;;;;;5029721;28;20029;-76
2022/06/04 02:03:42;;;;;;;19.13;5.15;;;14.60;97.70;;;;;;5046899;28;20056;-76
2022/06/04 02:06:23;;;;;;;21.02;5.47;;;14.50;97.80;;;;;;5052099;28;20052;-76
2022/06/04 02:09:13;;;;;;;18.60;4.65;;;14.50;97.80;;;;;;5019207;28;20120;-75
2022/06/04 02:11:44;;;;;;;18.00;4.97;;;14.50;97.70;;;;;;5047834;28;20029;-76
2022/06/04 02:14:10;;;;;;;17.55;5.18;;;14.50;97.70;;;;;;5030738;28;20036;-75
2022/06/04 02:16:45;;;;;;;16.77;4.97;;;14.60;97.80;;;;;;5050591;28;20442;-75
2022/06/04 02:19:11;;;;;;;23.00;5.32;;;14.50;97.70;;;;;;5052821;28;20101;-76
2022/06/04 02:21:37;;;;;;;19.60;4.90;;;14.50;97.70;;;;;;5052808;28;20489;-76
2022/06/04 02:24:05;;;;;;;19.92;4.95;;;14.50;97.60;;;;;;5054751;28;20028;-75
2022/06/04 02:26:30;;;;;;;17.02;4.72;;;14.50;97.60;;;;;;5048732;28;20449;-74
2022/06/04 02:28:58;;;;;;;18.13;5.03;;;14.50;97.50;;;;;;5042724;28;20479;-75
2022/06/04 02:31:33;;;;;;;18.83;5.25;;;14.50;97.60;;;;;;5050710;28;20552;-74
2022/06/04 02:34:14;;;;;;;19.05;4.88;;;14.50;97.50;;;;;;5051134;28;20064;-75
2022/06/04 02:36:51;;;;;;;17.30;4.65;;;14.50;97.50;;;;;;5041989;28;20360;-75
2022/06/04 02:39:26;;;;;;;18.13;4.78;;;14.50;97.50;;;;;;5032618;28;20453;-75
2022/06/04 02:42:31;;;;;;;21.48;5.10;;;14.50;97.60;;;;;;5045351;28;20088;-76
2022/06/04 02:45:05;;;;;;;15.27;4.05;;;14.50;97.60;;;;;;5029904;28;20033;-75
2022/06/04 02:47:38;;;;;;;16.38;4.63;;;14.50;97.60;;;;;;5035888;28;20090;-76
2022/06/04 02:50:22;;;;;;;17.80;4.97;;;14.50;97.60;;;;;;5051796;28;20116;-77
2022/06/04 02:52:50;;;;;;;15.80;4.85;;;14.50;97.50;;;;;;5047282;28;20098;-76
2022/06/04 02:55:23;;;;;;;14.77;4.90;;;14.50;97.60;;;;;;5050923;28;20129;-75
2022/06/04 02:57:52;;;;;;;15.63;4.88;;;14.40;97.50;;;;;;5055429;28;20041;-76
2022/06/04 03:00:21;;;;;;;18.75;5.53;;;14.50;97.60;;;;;;5045531;28;20020;-76
2022/06/04 03:02:47;;;;;;;16.73;5.20;;;14.50;97.50;;;;;;5052904;28;20029;-76
2022/06/04 03:05:17;;;;;;;14.32;4.85;;;14.40;97.50;;;;;;5041647;28;20388;-76
2022/06/04 03:07:47;;;;;;;20.45;5.60;;;14.40;97.50;;;;;;5046293;28;20033;-77
2022/06/04 03:10:28;;;;;;;18.45;5.68;;;14.40;97.50;;;;;;5051029;28;20095;-77
2022/06/04 03:12:54;;;;;;;17.60;5.28;;;14.40;97.50;;;;;;5021759;28;20036;-76
2022/06/04 03:15:21;;;;;;;15.40;4.93;;;14.40;97.60;;;;;;5042000;28;20041;-76
2022/06/04 03:17:48;;;;;;;14.65;5.35;;;14.40;97.60;;;;;;5041275;28;20086;-75
2022/06/04 03:20:17;;;;;;;15.02;5.75;;;14.40;97.50;;;;;;5056280;28;20053;-76
2022/06/04 03:22:43;;;;;;;20.20;5.22;;;14.40;97.40;;;;;;5045531;28;20032;-77
2022/06/04 03:25:09;;;;;;;13.27;4.95;;;14.40;97.40;;;;;;5035455;28;20645;-77
2022/06/04 03:27:35;;;;;;;16.33;4.97;;;14.50;97.30;;;;;;5032413;28;20478;-78
2022/06/04 03:30:01;;;;;;;18.38;5.25;;;14.40;97.30;;;;;;5049501;28;20120;-75
2022/06/04 03:32:27;;;;;;;15.63;5.43;;;14.40;97.40;;;;;;5040016;28;20028;-76
2022/06/04 03:34:52;;;;;;;23.85;6.55;;;14.40;97.40;;;;;;5030480;28;20028;-77
2022/06/04 03:37:18;;;;;;;19.42;6.13;;;14.40;97.60;;;;;;5042805;28;20040;-76
2022/06/04 03:39:43;;;;;;;17.05;5.72;;;14.40;97.90;;;;;;5030330;28;20487;-76
2022/06/04 03:42:09;;;;;;;20.92;6.00;;;14.40;98.20;;;;;;5040230;28;20041;-76
2022/06/04 03:44:35;;;;;;;20.05;6.60;;;14.30;98.20;;;;;;5031361;28;20446;-76
2022/06/04 03:47:01;;;;;;;15.63;5.82;;;14.30;98.50;;;;;;5040454;28;20086;-76
2022/06/04 03:49:26;;;;;;;21.70;7.38;;;14.30;98.60;;;;;;5049456;28;20037;-76
2022/06/04 03:51:52;;;;;;;19.95;6.07;;;14.20;98.70;;;;;;5047979;28;20036;-75
2022/06/04 03:54:52;;;;;;;19.67;6.72;;;14.20;98.80;;;;;;5047668;28;20110;-76
2022/06/04 03:59:51;;;;;;;19.50;6.03;;;14.10;98.70;;;;;;5046444;28;20061;-76
2022/06/04 04:02:17;;;;;;;23.15;6.88;;;14.10;98.80;;;;;;5040140;28;20116;-76
2022/06/04 04:04:42;;;;;;;15.63;6.00;;;14.10;98.90;;;;;;5027223;28;20582;-76
2022/06/04 04:07:08;;;;;;;18.98;6.20;;;14.10;99.00;;;;;;5035309;28;20042;-75
2022/06/04 04:09:34;;;;;;;20.40;6.72;;;14.10;98.90;;;;;;5044813;28;20048;-76
2022/06/04 04:11:59;;;;;;;20.95;6.75;;;14.10;98.80;;;;;;5028910;28;20021;-76
2022/06/04 04:14:25;;;;;;;19.48;6.55;;;14.10;98.80;;;;;;5048976;28;20152;-77
2022/06/04 04:16:51;;;;;;;19.73;6.20;;;14.10;98.90;;;;;;5048173;28;20085;-76
2022/06/04 04:19:16;;;;;;;19.63;7.00;;;14.10;98.90;;;;;;5042805;28;20046;-76
2022/06/04 04:21:42;;;;;;;18.90;6.80;;;14.10;99.10;;;;;;5016012;28;20044;-77
2022/06/04 04:24:08;;;;;;;18.20;6.70;;;14.10;99.00;;;;;;5040201;28;20442;-76
2022/06/04 04:26:33;;;;;;;24.02;6.82;;;14.10;98.90;;;;;;5042254;28;20376;-76
2022/06/04 04:28:59;;;;;;;17.83;6.70;;;14.10;98.90;;;;;;5051311;28;20057;-77
2022/06/04 04:31:26;;;;;;;17.38;6.82;;;14.10;99.30;;;;;;5055480;28;20051;-77
2022/06/04 04:33:52;;;;;;;19.85;7.00;;;14.10;99.50;;;;;;5053684;28;20487;-77
2022/06/04 04:36:18;;;;;;;19.92;6.45;;;14.10;99.30;;;;;;5035991;28;20373;-77
2022/06/04 04:38:44;;;;;;;18.80;7.15;;;14.10;99.30;;;;;;5060747;28;20047;-76
2022/06/04 04:41:11;;;;;;;18.02;6.60;;;14.10;99.40;;;;;;5063227;28;20037;-77
2022/06/04 04:43:37;;;;;;;18.42;6.53;;;14.10;99.30;;;;;;5054052;28;20068;-77
2022/06/04 04:46:05;;;;;;;15.57;6.15;;;14.10;99.40;;;;;;5064646;28;20051;-76
2022/06/04 04:48:31;;;;;;;20.30;6.90;;;14.10;99.20;;;;;;5041089;28;20064;-76
2022/06/04 04:50:56;;;;;;;18.50;6.53;;;14.10;99.10;;;;;;5029488;28;20060;-76
2022/06/04 04:53:23;;;;;;;16.63;6.28;;;14.10;99.10;;;;;;5056658;28;20029;-77
2022/06/04 04:55:49;;;;;;;14.77;5.72;;;14.10;99.40;;;;;;5046517;28;20032;-76
2022/06/04 04:58:15;;;;;;;20.33;6.82;;;14.10;99.20;;;;;;5038415;28;20041;-75
2022/06/04 05:00:42;;;;;;;15.63;5.65;;;14.10;99.20;;;;;;5047966;28;20059;-77
2022/06/04 05:03:08;;;;;;;23.42;6.88;;;14.10;99.00;;;;;;5058460;28;20037;-77
2022/06/04 05:05:34;;;;;;;15.45;5.50;;;14.10;98.40;;;;;;5067824;28;20082;-77
2022/06/04 05:08:00;;;;;;;14.77;5.57;;;14.20;98.70;;;;;;5057852;28;20028;-76
2022/06/04 05:10:25;;;;;;;22.90;6.65;;;14.20;98.60;;;;;;5055879;28;20025;-77
2022/06/04 05:12:53;;;;;;;16.27;6.60;;;14.20;98.80;;;;;;5041841;28;20171;-78
2022/06/04 05:15:19;;;;;;;20.58;7.93;;;14.10;99.50;;;;;;5041500;28;20038;-77
2022/06/04 05:17:44;;;;;;;22.52;7.18;;;14.10;99.70;;;;;;5031304;28;20147;-76
2022/06/04 05:20:11;;;;;;;20.00;8.05;;;14.00;99.90;;;;;;5038349;28;20048;-76
2022/06/04 05:22:36;;;;;;;19.13;8.07;;;14.00;99.90;;;;;;5057889;28;20036;-76
2022/06/04 05:25:03;;;;;;;22.60;8.90;;;13.90;99.90;;;;;;5047336;28;20044;-75
2022/06/04 05:27:29;;;;;;;27.00;9.73;;;13.90;99.90;;;;;;5044568;28;20042;-76
2022/06/04 05:29:55;;;;;;;23.20;9.10;;;13.80;99.90;;;;;;5062261;28;20074;-76
2022/06/04 05:32:20;;;;;;;23.88;10.18;;;13.80;99.90;;;;;;5052620;28;20025;-76
2022/06/04 05:34:46;;;;;;;25.33;10.63;;;13.70;99.90;;;;;;5038800;28;20074;-76
2022/06/04 05:37:12;;;;;;;27.83;10.68;;;13.60;99.90;;;;;;5051794;28;20032;-78
2022/06/04 05:39:37;;;;;;;29.00;11.73;;;13.60;99.90;;;;;;5057391;28;20035;-77
2022/06/04 05:42:04;;;;;;;24.00;9.23;;;13.60;99.90;;;;;;5044887;28;20033;-78
2022/06/04 05:44:30;;;;;;;26.33;11.15;;;13.50;99.90;;;;;;5030001;28;20029;-77
2022/06/04 05:46:56;;;;;;;26.95;10.57;;;13.50;99.90;;;;;;5034689;28;20521;-76
2022/06/04 05:49:22;;;;;;;24.50;10.88;;;13.40;99.90;;;;;;5057846;28;20482;-76
2022/06/04 05:51:49;;;;;;;27.05;11.73;;;13.40;99.90;;;;;;5046850;28;20108;-76
2022/06/04 05:54:15;;;;;;;22.80;10.43;;;13.40;99.90;;;;;;5040289;28;20106;-76
2022/06/04 05:56:45;;;;;;;24.30;11.32;;;13.40;99.90;;;;;;5035343;28;20418;-75
2022/06/04 05:59:13;;;;;;;29.85;11.43;;;13.40;99.90;;;;;;5050262;28;20047;-76
2022/06/04 06:01:40;;;;;;;22.02;10.23;;;13.40;99.90;;;;;;5044474;28;20033;-76
2022/06/04 06:04:08;;;;;;;26.38;10.93;;;13.40;99.90;;;;;;5051031;28;20028;-76
2022/06/04 06:06:37;;;;;;;28.80;11.75;;;13.30;99.90;;;;;;5040222;28;20032;-75
2022/06/04 06:09:05;;;;;;;25.20;11.75;;;13.30;99.90;;;;;;5046079;28;20042;-76
2022/06/04 06:11:32;;;;;;;27.92;11.95;;;13.30;99.90;;;;;;5052978;28;20032;-76
2022/06/04 06:13:58;;;;;;;22.40;10.25;;;13.30;99.90;;;;;;5025734;28;20507;-75
2022/06/04 06:16:29;;;;;;;31.08;12.00;;;13.30;99.90;;;;;;5049134;28;20028;-76
2022/06/04 06:18:55;;;;;;;27.77;11.27;;;13.30;99.90;;;;;;5038874;28;20045;-76
2022/06/04 06:21:23;;;;;;;25.02;11.73;;;13.30;99.90;;;;;;5031662;28;20035;-75
2022/06/04 06:23:50;;;;;;;29.42;11.52;;;13.30;99.90;;;;;;5041194;28;20119;-76
2022/06/04 06:26:19;;;;;;;29.10;12.50;;;13.30;99.90;;;;;;5041928;28;20029;-75
2022/06/04 06:28:45;;;;;;;29.10;12.32;;;13.30;99.90;;;;;;5043745;28;20502;-75
2022/06/04 06:31:13;;;;;;;25.45;11.40;;;13.30;99.90;;;;;;5042390;28;20036;-75
2022/06/04 06:33:39;;;;;;;22.23;10.80;;;13.40;99.90;;;;;;5042264;28;20029;-75
2022/06/04 06:36:08;;;;;;;26.17;11.68;;;13.40;99.90;;;;;;5043252;28;20032;-75
2022/06/04 06:38:34;;;;;;;30.08;11.10;;;13.40;99.90;;;;;;5047021;28;20036;-75
2022/06/04 06:41:01;;;;;;;22.50;11.13;;;13.40;99.90;;;;;;5026568;28;20083;-75
2022/06/04 06:46:09;;;;;;;23.88;10.45;;;13.40;99.90;;;;;;5045482;28;20074;-75
2022/06/04 06:48:36;;;;;;;27.00;10.90;;;13.40;99.90;;;;;;5022488;28;20037;-76
2022/06/04 06:51:16;;;;;;;26.65;11.30;;;13.40;99.90;;;;;;5020708;28;20059;-75
2022/06/04 06:53:42;;;;;;;25.00;11.73;;;13.40;99.90;;;;;;5043322;28;20028;-75
2022/06/04 06:56:14;;;;;;;21.55;10.05;;;13.40;99.90;;;;;;5041277;28;20520;-74
2022/06/04 06:58:40;;;;;;;23.20;10.88;;;13.40;99.90;;;;;;5043250;28;20051;-76
2022/06/04 07:01:06;;;;;;;18.88;9.30;;;13.40;99.90;;;;;;5033004;28;20079;-75
2022/06/04 07:03:34;;;;;;;21.83;10.35;;;13.40;99.90;;;;;;5046265;28;20037;-75
2022/06/04 07:06:00;;;;;;;27.20;12.70;;;13.50;99.90;;;;;;5030028;28;20028;-75
2022/06/04 07:08:26;;;;;;;26.15;11.23;;;13.50;99.90;;;;;;5049729;28;20033;-75
2022/06/04 07:10:53;;;;;;;22.92;11.80;;;13.50;99.90;;;;;;5035013;28;20462;-75
2022/06/04 07:13:19;;;;;;;27.88;11.55;;;13.50;99.90;;;;;;5034175;28;20037;-75
2022/06/04 07:15:44;;;;;;;23.38;11.00;;;13.40;99.90;;;;;;5047085;28;20453;-75
2022/06/04 07:18:11;;;;;;;19.92;10.30;;;13.50;99.90;;;;;;5048909;28;20048;-75
2022/06/04 07:20:38;;;;;;;24.30;10.43;;;13.50;99.90;;;;;;5047804;28;20402;-75
2022/06/04 07:23:04;;;;;;;21.83;9.25;;;13.60;99.90;;;;;;5034141;28;20116;-76
2022/06/04 07:25:30;;;;;;;25.23;10.82;;;13.60;99.90;;;;;;5056597;28;20788;-75
2022/06/04 07:27:56;;;;;;;27.40;10.25;;;13.70;99.90;;;;;;5049771;28;20067;-75
2022/06/04 07:30:21;;;;;;;25.63;10.18;;;13.70;99.90;;;;;;5047901;28;20440;-74
2022/06/04 07:32:47;;;;;;;23.05;10.48;;;13.80;99.90;;;;;;5052433;28;20033;-75
2022/06/04 07:35:13;;;;;;;22.35;8.95;;;13.90;99.90;;;;;;5052334;28;20037;-76
2022/06/04 07:37:38;;;;;;;23.30;9.13;;;13.90;99.90;;;;;;5034782;28;20136;-76
2022/06/04 07:40:05;;;;;;;23.48;8.82;;;14.00;99.90;;;;;;5045348;28;20033;-74
2022/06/04 07:42:30;;;;;;;20.42;8.32;;;14.00;99.90;;;;;;5027305;28;20135;-76
2022/06/04 07:44:57;;;;;;;24.35;9.30;;;14.00;99.90;;;;;;5049080;28;20067;-75
2022/06/04 07:47:24;;;;;;;24.45;9.27;;;14.10;99.90;;;;;;5032670;28;20031;-76
2022/06/04 07:49:50;;;;;;;21.27;9.50;;;14.10;99.90;;;;;;5031153;28;20430;-76
2022/06/04 07:52:16;;;;;;;24.77;9.13;;;14.20;99.90;;;;;;5048449;28;20120;-76
2022/06/04 07:54:42;;;;;;;21.02;8.43;;;14.50;99.90;;;;;;5045745;28;20045;-75
2022/06/04 07:57:08;;;;;;;19.33;7.22;;;14.60;99.90;;;;;;5047585;28;20406;-75
2022/06/04 07:59:33;;;;;;;23.35;8.90;;;14.80;99.90;;;;;;5045752;28;20049;-76
2022/06/04 08:01:59;;;;;;;18.23;8.00;;;15.00;99.90;;;;;;5047918;28;20096;-75
2022/06/04 08:04:25;;;;;;;22.33;8.65;;;15.20;99.90;;;;;;5048409;28;20044;-76
2022/06/04 08:06:51;;;;;;;20.25;8.15;;;15.20;99.90;;;;;;5048024;28;20109;-77
2022/06/04 08:09:16;;;;;;;21.30;8.02;;;15.30;99.90;;;;;;5049769;28;20037;-75
2022/06/04 08:11:42;;;;;;;18.90;7.95;;;15.30;99.90;;;;;;5045751;28;20029;-74
2022/06/04 08:14:16;;;;;;;21.55;7.53;;;15.40;99.90;;;;;;5042481;28;20033;-76
2022/06/04 08:16:52;;;;;;;20.80;7.70;;;15.40;99.90;;;;;;5047730;28;20029;-75
2022/06/04 08:19:19;;;;;;;21.77;6.80;;;15.30;99.90;;;;;;5046934;28;20041;-76
2022/06/04 08:21:45;;;;;;;24.08;8.98;;;15.30;99.90;;;;;;5017590;28;20029;-76
2022/06/04 08:24:12;;;;;;;24.15;8.82;;;15.30;99.90;;;;;;5043521;28;20037;-77
2022/06/04 08:26:40;;;;;;;21.05;7.80;;;15.30;99.90;;;;;;5043199;28;20159;-75
2022/06/04 08:29:07;;;;;;;16.77;7.13;;;15.30;99.90;;;;;;5038643;28;20562;-76
2022/06/04 08:31:33;;;;;;;21.80;7.93;;;15.30;99.90;;;;;;5045935;28;20115;-77
2022/06/04 08:33:59;;;;;;;22.15;7.93;;;15.30;99.90;;;;;;5043369;28;20044;-75
2022/06/04 08:36:26;;;;;;;22.05;8.13;;;15.40;99.90;;;;;;5041240;28;20025;-75
2022/06/04 08:38:52;;;;;;;22.60;8.73;;;15.40;99.90;;;;;;5046092;28;20053;-77
2022/06/04 08:41:34;;;;;;;21.73;7.28;;;15.50;99.90;;;;;;5055324;28;20518;-76
2022/06/04 08:44:09;;;;;;;16.50;6.63;;;15.50;99.90;;;;;;5043152;28;20091;-77
2022/06/04 08:47:00;;;;;;;20.95;7.28;;;15.60;99.90;;;;;;5025827;28;20029;-76
2022/06/04 08:49:56;;;;;;;20.15;7.38;;;15.60;99.90;;;;;;5050226;28;20033;-76
2022/06/04 08:52:31;;;;;;;21.88;7.25;;;15.70;99.90;;;;;;5039315;28;20052;-75
2022/06/04 08:58:01;;;;;;;16.90;7.45;;;15.90;99.10;;;;;;5038905;28;20044;-77
2022/06/04 09:00:43;;;;;;;18.05;7.45;;;15.90;98.90;;;;;;5036313;28;20037;-78
2022/06/04 09:03:35;;;;;;;21.63;7.82;;;16.00;98.90;;;;;;5042083;28;20905;-79
2022/06/04 09:06:19;;;;;;;19.15;6.80;;;16.10;98.90;;;;;;5050564;28;20041;-77
2022/06/04 09:09:03;;;;;;;22.15;6.75;;;16.20;97.90;;;;;;5043309;28;20153;-76
2022/06/04 09:11:44;;;;;;;18.88;7.20;;;16.40;98.50;;;;;;5045554;28;20032;-76
2022/06/04 09:14:25;;;;;;;17.20;6.20;;;16.50;97.60;;;;;;5020296;28;20025;-77
2022/06/04 09:17:01;;;;;;;16.85;6.38;;;16.60;96.90;;;;;;5037612;28;20497;-76
2022/06/04 09:19:32;;;;;;;20.25;6.75;;;16.60;96.40;;;;;;5044844;28;20083;-77
2022/06/04 09:21:58;;;;;;;18.58;6.82;;;16.60;97.00;;;;;;5029203;28;20033;-76
2022/06/04 09:24:25;;;;;;;17.70;7.30;;;16.50;96.80;;;;;;5044298;28;20037;-76
2022/06/04 09:27:05;;;;;;;16.27;7.18;;;16.50;97.00;;;;;;5034321;28;20064;-80
2022/06/04 09:29:57;;;;;;;21.75;7.32;;;16.50;96.90;;;;;;5048234;28;20029;-76
2022/06/04 09:32:44;;;;;;;15.77;6.38;;;16.50;96.50;;;;;;5027564;28;20033;-76
2022/06/04 09:35:13;;;;;;;22.85;6.88;;;16.80;96.60;;;;;;5045791;28;20033;-79
2022/06/04 09:37:45;;;;;;;16.77;6.18;;;17.00;95.60;;;;;;5046115;28;20029;-76
2022/06/04 09:40:26;;;;;;;19.13;6.90;;;16.90;95.50;;;;;;5045573;28;20082;-78
2022/06/04 09:43:05;;;;;;;19.33;6.20;;;16.80;95.60;;;;;;5029605;28;20516;-78
2022/06/04 09:45:31;;;;;;;18.65;6.00;;;16.70;95.70;;;;;;5042988;28;20025;-76
2022/06/04 09:47:58;;;;;;;18.30;7.35;;;16.70;95.50;;;;;;5037255;28;20048;-77
2022/06/04 09:50:33;;;;;;;20.38;7.35;;;16.60;95.70;;;;;;5046152;28;20097;-77
2022/06/04 09:53:24;;;;;;;16.27;6.90;;;16.50;95.80;;;;;;5036182;28;20059;-77
2022/06/04 09:55:53;;;;;;;21.00;7.90;;;16.50;96.10;;;;;;5045220;28;20438;-79
2022/06/04 09:58:35;;;;;;;19.83;7.70;;;16.50;96.90;;;;;;5037012;28;20113;-77
2022/06/04 10:01:09;;;;;;;23.70;7.13;;;16.50;97.00;;;;;;5026420;28;20040;-78
2022/06/04 10:03:39;;;;;;;15.55;6.95;;;16.70;96.00;;;;;;5028468;28;20098;-78
2022/06/04 10:06:09;;;;;;;17.73;7.22;;;16.80;97.00;;;;;;5028110;28;20033;-79
2022/06/04 10:11:24;;;;;;;16.10;6.45;;;17.20;95.40;;;;;;5041548;28;20083;-79
2022/06/04 10:13:53;;;;;;;16.60;6.65;;;17.20;94.70;;;;;;5045047;28;20044;-76
2022/06/04 10:16:20;;;;;;;15.32;6.15;;;17.20;93.80;;;;;;5048024;28;20558;-78
2022/06/04 10:19:00;;;;;;;20.67;6.75;;;17.10;94.70;;;;;;5046316;28;20041;-76
2022/06/04 10:21:35;;;;;;;17.85;6.43;;;17.10;94.00;;;;;;5045792;28;20495;-79
2022/06/04 10:24:04;;;;;;;17.80;6.80;;;17.10;94.00;;;;;;5033089;28;20095;-79
2022/06/04 10:26:45;;;;;;;18.58;6.72;;;17.10;94.60;;;;;;5047794;28;20124;-81
2022/06/04 10:29:38;;;;;;;15.57;7.22;;;17.10;94.10;;;;;;5046431;28;20041;-80
2022/06/04 10:32:22;;;;;;;18.70;7.38;;;16.90;94.10;;;;;;5047821;28;20029;-78
2022/06/04 10:34:47;;;;;;;17.75;6.75;;;17.00;94.80;;;;;;5040828;28;20037;-77
2022/06/04 10:37:29;;;;;;;16.15;6.72;;;17.10;94.20;;;;;;5031696;28;20036;-79
2022/06/04 10:40:25;;;;;;;16.20;6.22;;;17.30;94.00;;;;;;5047985;28;20507;-80
2022/06/04 10:43:18;;;;;;;22.98;6.82;;;17.40;93.90;;;;;;5046862;28;20147;-80
2022/06/04 10:45:54;;;;;;;14.23;6.50;;;17.50;93.40;;;;;;5040883;28;20053;-78
2022/06/04 10:49:14;;;;;;;15.52;7.03;;;17.90;93.20;;;;;;5044923;28;20040;-78
2022/06/04 10:51:54;;;;;;;19.92;7.05;;;18.20;93.30;;;;;;4993908;28;20086;-77
2022/06/04 10:54:47;;;;;;;14.73;6.38;;;18.30;93.30;;;;;;4988901;28;20507;-78
2022/06/04 10:57:33;;;;;;;17.45;5.97;;;18.20;91.30;;;;;;4986532;28;20042;-77
2022/06/04 11:00:10;;;;;;;18.20;7.35;;;18.00;91.30;;;;;;4995420;28;20530;-76
2022/06/04 11:03:26;;;;;;;17.27;6.15;;;18.00;91.90;;;;;;4997434;28;20098;-77
2022/06/04 11:06:21;;;;;;;16.95;7.53;;;17.90;92.90;;;;;;4955991;28;20087;-78
2022/06/04 11:08:52;;;;;;;19.35;7.82;;;17.90;92.60;;;;;;4949279;28;20043;-76
2022/06/04 11:11:34;;;;;;;15.70;6.90;;;18.30;92.40;;;;;;4971422;28;20038;-78
2022/06/04 11:14:25;;;;;;;16.23;6.75;;;18.60;91.60;;;;;;4959085;28;20062;-78
2022/06/04 11:17:07;;;;;;;12.77;5.88;;;19.00;90.50;;;;;;4943988;28;20071;-77
2022/06/04 11:19:59;;;;;;;18.20;6.35;;;20.50;87.70;;;;;;4938325;28;20051;-77
2022/06/04 11:22:36;;;;;;;15.40;6.15;;;21.90;81.20;;;;;;4960455;28;20051;-77
2022/06/04 11:25:25;;;;;;;13.20;6.00;;;23.00;75.10;;;;;;4954365;28;20070;-75
2022/06/04 11:27:54;;;;;;;12.82;5.60;;;23.50;73.10;;;;;;4969506;28;20129;-76
2022/06/04 11:30:49;;;;;;;16.80;6.00;;;23.60;71.50;;;;;;4979697;28;20061;-75
2022/06/04 11:33:45;;;;;;;18.38;6.45;;;23.30;71.60;;;;;;4930747;29;20079;-75
2022/06/04 11:36:13;;;;;;;18.00;6.22;;;22.50;72.70;;;;;;4930392;29;20071;-76
2022/06/04 11:38:58;;;;;;;13.45;5.85;;;21.50;76.60;;;;;;4929541;29;20562;-78
2022/06/04 11:42:11;;;;;;;14.38;5.70;;;20.80;81.80;;;;;;4951582;28;20039;-79
2022/06/04 11:44:52;;;;;;;18.05;6.15;;;20.20;82.10;;;;;;4949343;29;20051;-78
2022/06/04 11:47:51;;;;;;;19.58;6.60;;;19.60;84.70;;;;;;4948704;29;20524;-77
2022/06/04 11:50:35;;;;;;;15.60;5.85;;;19.20;86.40;;;;;;4941766;29;20139;-78
2022/06/04 11:53:08;;;;;;;20.13;6.63;;;18.90;88.30;;;;;;4949397;29;20039;-77
2022/06/04 11:55:55;;;;;;;15.60;6.55;;;18.70;89.10;;;;;;4933209;29;20043;-77
2022/06/04 11:58:42;;;;;;;13.57;5.53;;;18.50;89.90;;;;;;4933149;29;20111;-75
2022/06/04 12:01:19;;;;;;;14.57;6.15;;;18.50;89.30;;;;;;4947297;29;20031;-77
2022/06/04 12:03:51;;;;;;;17.10;6.13;;;18.50;89.40;;;;;;4937829;29;20171;-78
2022/06/04 12:06:38;;;;;;;17.35;6.30;;;18.60;89.40;;;;;;4924644;29;20040;-76
2022/06/04 12:09:25;;;;;;;16.77;6.53;;;18.60;90.30;;;;;;4930115;28;20052;-77
2022/06/04 12:12:16;;;;;;;16.42;5.65;;;18.70;90.60;;;;;;5007192;28;20060;-79
2022/06/04 12:14:51;;;;;;;11.73;5.53;;;18.80;90.10;;;;;;4998354;28;20063;-80
2022/06/04 12:17:39;;;;;;;15.52;6.10;;;18.80;88.60;;;;;;5050234;28;20082;-77
2022/06/04 12:26:32;;;;;;;13.82;5.32;;;19.10;87.60;;;;;;5039717;28;20048;-78
2022/06/04 12:28:58;;;;;;;14.35;5.95;;;19.10;87.30;;;;;;5031939;28;20098;-79
2022/06/04 12:31:37;;;;;;;12.55;5.10;;;19.00;89.60;;;;;;5040825;28;20053;-76
2022/06/04 12:34:25;;;;;;;16.83;6.05;;;19.10;88.00;;;;;;5023575;28;20119;-75
2022/06/04 12:36:53;;;;;;;14.40;5.22;;;19.10;89.30;;;;;;5047795;28;20077;-77
2022/06/04 12:39:26;;;;;;;14.00;5.75;;;19.10;88.00;;;;;;5030116;28;20041;-76
2022/06/04 12:41:54;;;;;;;11.13;4.97;;;19.20;85.90;;;;;;5030493;28;20091;-77
2022/06/04 12:44:22;;;;;;;12.32;5.40;;;19.20;86.70;;;;;;5030859;28;20061;-74
2022/06/04 12:46:49;;;;;;;14.60;5.55;;;19.10;88.20;;;;;;5049315;28;20044;-78
2022/06/04 12:49:21;;;;;;;14.65;5.55;;;19.10;87.10;;;;;;5030109;28;20507;-75
2022/06/04 12:51:58;;;;;;;13.23;5.28;;;19.20;87.30;;;;;;5030423;28;20069;-76
2022/06/04 12:54:39;;;;;;;14.82;5.88;;;19.40;86.50;;;;;;5048988;28;20151;-76
2022/06/04 12:57:44;;;;;;;14.35;5.53;;;19.30;84.60;;;;;;5030963;28;20040;-78
2022/06/04 13:00:19;;;;;;;13.90;6.13;;;19.20;85.50;;;;;;5048114;28;20048;-76
2022/06/04 13:03:25;;;;;;;14.38;5.43;;;19.00;86.30;;;;;;5048889;28;20079;-76
2022/06/04 13:06:01;;;;;;;13.32;5.63;;;18.70;87.50;;;;;;5048882;28;20115;-76
2022/06/04 13:08:36;;;;;;;12.50;5.53;;;18.60;88.30;;;;;;5027696;28;20124;-77
2022/06/04 13:11:17;;;;;;;16.60;5.88;;;18.40;88.70;;;;;;5044640;28;20060;-76
2022/06/04 13:14:06;;;;;;;16.55;5.97;;;18.30;90.20;;;;;;5045506;28;20029;-75
2022/06/04 13:16:34;;;;;;;15.00;5.85;;;18.20;89.40;;;;;;5028381;28;20112;-75
2022/06/04 13:19:22;;;;;;;13.13;5.75;;;18.20;89.70;;;;;;5052237;28;20047;-74
2022/06/04 13:21:49;;;;;;;14.00;5.90;;;18.20;89.40;;;;;;5051586;28;20033;-75
2022/06/04 13:24:21;;;;;;;11.13;5.40;;;18.40;89.80;;;;;;5047705;28;20041;-76
2022/06/04 13:27:01;;;;;;;17.27;5.90;;;18.60;89.60;;;;;;5040824;28;20025;-76
2022/06/04 13:29:33;;;;;;;12.30;5.22;;;18.90;87.50;;;;;;5046435;28;20087;-76
2022/06/04 13:32:11;;;;;;;13.43;5.60;;;19.10;87.70;;;;;;5043177;28;20036;-75